sensor_id;sensor_type;location;lat;lon;timestamp;P1;durP1;ratioP1;P2;durP2;ratioP2
68250;SDS011;55066;51.560;4.642;2022-12-24T00:01:28;31.77;;;4.00;;
68250;SDS011;55066;51.560;4.642;2022-12-24T00:03:53;33.03;;;4.20;;
68250;SDS011;55066;51.560;4.642;2022-12-24T00:06:20;31.90;;;3.77;;
68250;SDS011;55066;51.560;4.642;2022-12-24T00:08:47;26.33;;;3.22;;
68250;SDS011;55066;51.560;4.642;2022-12-24T00:11:12;37.93;;;3.53;;
68250;SDS011;55066;51.560;4.642;2022-12-24T00:13:38;24.92;;;3.70;;
68250;SDS011;55066;51.560;4.642;2022-12-24T00:16:03;29.57;;;3.80;;
68250;SDS011;55066;51.560;4.642;2022-12-24T00:18:29;33.10;;;3.83;;
68250;SDS011;55066;51.560;4.642;2022-12-24T00:20:55;32.03;;;3.60;;
68250;SDS011;55066;51.560;4.642;2022-12-24T00:23:20;37.83;;;3.80;;
68250;SDS011;55066;51.560;4.642;2022-12-24T00:25:46;37.37;;;3.70;;
68250;SDS011;55066;51.560;4.642;2022-12-24T00:28:12;33.13;;;3.67;;
68250;SDS011;55066;51.560;4.642;2022-12-24T00:30:39;24.95;;;3.80;;
68250;SDS011;55066;51.560;4.642;2022-12-24T00:33:05;31.23;;;3.60;;
68250;SDS011;55066;51.560;4.642;2022-12-24T00:35:34;29.60;;;3.63;;
68250;SDS011;55066;51.560;4.642;2022-12-24T00:38:00;34.22;;;3.85;;
68250;SDS011;55066;51.560;4.642;2022-12-24T00:40:27;42.33;;;4.10;;
68250;SDS011;55066;51.560;4.642;2022-12-24T00:42:53;23.60;;;2.90;;
68250;SDS011;55066;51.560;4.642;2022-12-24T00:45:19;30.13;;;3.33;;
68250;SDS011;55066;51.560;4.642;2022-12-24T00:47:44;31.50;;;3.22;;
68250;SDS011;55066;51.560;4.642;2022-12-24T00:50:10;27.60;;;3.50;;
68250;SDS011;55066;51.560;4.642;2022-12-24T00:52:35;35.93;;;3.47;;
68250;SDS011;55066;51.560;4.642;2022-12-24T00:55:00;35.83;;;3.50;;
68250;SDS011;55066;51.560;4.642;2022-12-24T00:57:26;35.10;;;3.67;;
68250;SDS011;55066;51.560;4.642;2022-12-24T00:59:51;37.33;;;3.97;;
68250;SDS011;55066;51.560;4.642;2022-12-24T01:02:17;35.13;;;3.07;;
68250;SDS011;55066;51.560;4.642;2022-12-24T01:04:42;34.90;;;3.70;;
68250;SDS011;55066;51.560;4.642;2022-12-24T01:07:26;28.95;;;3.70;;
68250;SDS011;55066;51.560;4.642;2022-12-24T01:09:51;30.37;;;3.30;;
68250;SDS011;55066;51.560;4.642;2022-12-24T01:12:17;32.93;;;3.60;;
68250;SDS011;55066;51.560;4.642;2022-12-24T01:14:44;34.93;;;3.10;;
68250;SDS011;55066;51.560;4.642;2022-12-24T01:17:10;30.85;;;2.97;;
68250;SDS011;55066;51.560;4.642;2022-12-24T01:19:35;35.87;;;4.10;;
68250;SDS011;55066;51.560;4.642;2022-12-24T01:22:00;27.83;;;3.80;;
68250;SDS011;55066;51.560;4.642;2022-12-24T01:24:26;30.17;;;3.43;;
68250;SDS011;55066;51.560;4.642;2022-12-24T01:26:54;25.77;;;2.92;;
68250;SDS011;55066;51.560;4.642;2022-12-24T01:29:19;36.60;;;4.03;;
68250;SDS011;55066;51.560;4.642;2022-12-24T01:31:45;24.80;;;3.67;;
68250;SDS011;55066;51.560;4.642;2022-12-24T01:34:10;43.57;;;3.53;;
68250;SDS011;55066;51.560;4.642;2022-12-24T01:36:36;30.63;;;4.30;;
68250;SDS011;55066;51.560;4.642;2022-12-24T01:39:01;41.42;;;4.38;;
68250;SDS011;55066;51.560;4.642;2022-12-24T01:41:29;33.55;;;4.30;;
68250;SDS011;55066;51.560;4.642;2022-12-24T01:44:25;35.72;;;4.05;;
68250;SDS011;55066;51.560;4.642;2022-12-24T01:46:58;47.20;;;3.40;;
68250;SDS011;55066;51.560;4.642;2022-12-24T01:49:30;32.90;;;3.85;;
68250;SDS011;55066;51.560;4.642;2022-12-24T01:52:00;32.40;;;3.97;;
68250;SDS011;55066;51.560;4.642;2022-12-24T01:54:40;38.58;;;4.18;;
68250;SDS011;55066;51.560;4.642;2022-12-24T01:57:22;36.13;;;4.18;;
68250;SDS011;55066;51.560;4.642;2022-12-24T01:59:52;54.72;;;4.55;;
68250;SDS011;55066;51.560;4.642;2022-12-24T02:02:23;36.93;;;3.73;;
68250;SDS011;55066;51.560;4.642;2022-12-24T02:05:04;37.75;;;4.32;;
68250;SDS011;55066;51.560;4.642;2022-12-24T02:07:34;35.78;;;3.55;;
68250;SDS011;55066;51.560;4.642;2022-12-24T02:10:00;23.02;;;3.08;;
68250;SDS011;55066;51.560;4.642;2022-12-24T02:12:30;33.20;;;3.88;;
68250;SDS011;55066;51.560;4.642;2022-12-24T02:15:00;32.77;;;3.63;;
68250;SDS011;55066;51.560;4.642;2022-12-24T02:17:28;32.85;;;3.78;;
68250;SDS011;55066;51.560;4.642;2022-12-24T02:25:22;31.50;;;3.80;;
68250;SDS011;55066;51.560;4.642;2022-12-24T02:30:44;28.27;;;3.97;;
68250;SDS011;55066;51.560;4.642;2022-12-24T02:33:37;29.75;;;3.42;;
68250;SDS011;55066;51.560;4.642;2022-12-24T02:38:54;33.80;;;4.40;;
68250;SDS011;55066;51.560;4.642;2022-12-24T02:41:25;31.55;;;4.28;;
68250;SDS011;55066;51.560;4.642;2022-12-24T02:44:14;33.38;;;3.65;;
68250;SDS011;55066;51.560;4.642;2022-12-24T02:46:42;37.63;;;4.15;;
68250;SDS011;55066;51.560;4.642;2022-12-24T02:49:09;30.40;;;4.30;;
68250;SDS011;55066;51.560;4.642;2022-12-24T02:51:34;32.97;;;3.87;;
68250;SDS011;55066;51.560;4.642;2022-12-24T02:53:59;32.17;;;4.37;;
68250;SDS011;55066;51.560;4.642;2022-12-24T03:01:46;33.42;;;3.67;;
68250;SDS011;55066;51.560;4.642;2022-12-24T03:07:25;37.80;;;4.72;;
68250;SDS011;55066;51.560;4.642;2022-12-24T03:10:02;31.80;;;4.68;;
68250;SDS011;55066;51.560;4.642;2022-12-24T03:12:52;34.53;;;3.83;;
68250;SDS011;55066;51.560;4.642;2022-12-24T03:15:21;30.20;;;3.60;;
68250;SDS011;55066;51.560;4.642;2022-12-24T03:17:49;31.92;;;3.65;;
68250;SDS011;55066;51.560;4.642;2022-12-24T03:20:22;22.90;;;3.30;;
68250;SDS011;55066;51.560;4.642;2022-12-24T03:22:51;33.75;;;4.53;;
68250;SDS011;55066;51.560;4.642;2022-12-24T03:25:16;20.85;;;3.67;;
68250;SDS011;55066;51.560;4.642;2022-12-24T03:27:43;28.38;;;3.45;;
68250;SDS011;55066;51.560;4.642;2022-12-24T03:30:12;26.40;;;3.57;;
68250;SDS011;55066;51.560;4.642;2022-12-24T03:32:39;18.88;;;2.65;;
68250;SDS011;55066;51.560;4.642;2022-12-24T03:35:06;24.98;;;4.00;;
68250;SDS011;55066;51.560;4.642;2022-12-24T03:37:32;24.25;;;3.95;;
68250;SDS011;55066;51.560;4.642;2022-12-24T03:39:57;27.67;;;3.55;;
68250;SDS011;55066;51.560;4.642;2022-12-24T03:42:23;31.17;;;3.30;;
68250;SDS011;55066;51.560;4.642;2022-12-24T03:44:48;18.53;;;3.10;;
68250;SDS011;55066;51.560;4.642;2022-12-24T03:47:13;41.23;;;6.07;;
68250;SDS011;55066;51.560;4.642;2022-12-24T03:49:39;29.83;;;4.18;;
68250;SDS011;55066;51.560;4.642;2022-12-24T03:52:04;30.10;;;3.57;;
68250;SDS011;55066;51.560;4.642;2022-12-24T03:54:30;26.57;;;3.87;;
68250;SDS011;55066;51.560;4.642;2022-12-24T03:56:55;29.37;;;4.07;;
68250;SDS011;55066;51.560;4.642;2022-12-24T03:59:21;24.83;;;3.40;;
68250;SDS011;55066;51.560;4.642;2022-12-24T04:01:46;29.90;;;3.70;;
68250;SDS011;55066;51.560;4.642;2022-12-24T04:04:11;31.53;;;4.00;;
68250;SDS011;55066;51.560;4.642;2022-12-24T04:06:37;35.93;;;4.43;;
68250;SDS011;55066;51.560;4.642;2022-12-24T04:09:02;30.47;;;3.63;;
68250;SDS011;55066;51.560;4.642;2022-12-24T04:11:29;33.40;;;4.68;;
68250;SDS011;55066;51.560;4.642;2022-12-24T04:13:56;42.90;;;4.82;;
68250;SDS011;55066;51.560;4.642;2022-12-24T04:16:21;30.70;;;3.97;;
68250;SDS011;55066;51.560;4.642;2022-12-24T04:18:47;30.93;;;4.10;;
68250;SDS011;55066;51.560;4.642;2022-12-24T04:21:12;35.38;;;4.10;;
68250;SDS011;55066;51.560;4.642;2022-12-24T04:23:39;32.87;;;4.67;;
68250;SDS011;55066;51.560;4.642;2022-12-24T04:26:06;28.02;;;4.03;;
68250;SDS011;55066;51.560;4.642;2022-12-24T04:28:33;30.17;;;3.88;;
68250;SDS011;55066;51.560;4.642;2022-12-24T04:30:59;29.57;;;4.17;;
68250;SDS011;55066;51.560;4.642;2022-12-24T04:33:33;40.92;;;4.53;;
68250;SDS011;55066;51.560;4.642;2022-12-24T04:35:59;27.65;;;4.15;;
68250;SDS011;55066;51.560;4.642;2022-12-24T04:38:25;38.40;;;4.82;;
68250;SDS011;55066;51.560;4.642;2022-12-24T04:43:47;40.65;;;5.10;;
68250;SDS011;55066;51.560;4.642;2022-12-24T04:46:17;45.78;;;5.22;;
68250;SDS011;55066;51.560;4.642;2022-12-24T04:48:45;33.47;;;4.68;;
68250;SDS011;55066;51.560;4.642;2022-12-24T04:51:12;38.88;;;4.50;;
68250;SDS011;55066;51.560;4.642;2022-12-24T04:53:38;35.85;;;4.32;;
68250;SDS011;55066;51.560;4.642;2022-12-24T04:56:08;23.60;;;4.20;;
68250;SDS011;55066;51.560;4.642;2022-12-24T04:58:36;37.35;;;4.32;;
68250;SDS011;55066;51.560;4.642;2022-12-24T05:01:03;34.40;;;4.22;;
68250;SDS011;55066;51.560;4.642;2022-12-24T05:03:29;30.77;;;4.27;;
68250;SDS011;55066;51.560;4.642;2022-12-24T05:06:02;36.67;;;4.25;;
68250;SDS011;55066;51.560;4.642;2022-12-24T05:08:29;25.95;;;3.13;;
68250;SDS011;55066;51.560;4.642;2022-12-24T05:10:55;28.10;;;3.22;;
68250;SDS011;55066;51.560;4.642;2022-12-24T05:13:21;26.95;;;3.97;;
68250;SDS011;55066;51.560;4.642;2022-12-24T05:15:46;33.42;;;4.28;;
68250;SDS011;55066;51.560;4.642;2022-12-24T05:18:12;26.60;;;3.70;;
68250;SDS011;55066;51.560;4.642;2022-12-24T05:20:39;25.03;;;3.17;;
68250;SDS011;55066;51.560;4.642;2022-12-24T05:23:05;27.55;;;3.42;;
68250;SDS011;55066;51.560;4.642;2022-12-24T05:25:49;26.90;;;3.67;;
68250;SDS011;55066;51.560;4.642;2022-12-24T05:28:33;30.45;;;3.58;;
68250;SDS011;55066;51.560;4.642;2022-12-24T05:30:58;20.40;;;3.17;;
68250;SDS011;55066;51.560;4.642;2022-12-24T05:33:23;26.90;;;3.38;;
68250;SDS011;55066;51.560;4.642;2022-12-24T05:35:50;31.73;;;5.03;;
68250;SDS011;55066;51.560;4.642;2022-12-24T05:38:18;28.83;;;4.75;;
68250;SDS011;55066;51.560;4.642;2022-12-24T05:40:44;37.80;;;4.17;;
68250;SDS011;55066;51.560;4.642;2022-12-24T05:43:10;32.20;;;4.05;;
68250;SDS011;55066;51.560;4.642;2022-12-24T05:45:35;30.33;;;4.57;;
68250;SDS011;55066;51.560;4.642;2022-12-24T05:48:01;23.57;;;3.43;;
68250;SDS011;55066;51.560;4.642;2022-12-24T05:50:26;29.47;;;3.40;;
68250;SDS011;55066;51.560;4.642;2022-12-24T05:53:03;20.05;;;3.40;;
68250;SDS011;55066;51.560;4.642;2022-12-24T05:55:28;23.77;;;3.63;;
68250;SDS011;55066;51.560;4.642;2022-12-24T05:57:54;22.87;;;3.20;;
68250;SDS011;55066;51.560;4.642;2022-12-24T06:00:19;28.07;;;3.60;;
68250;SDS011;55066;51.560;4.642;2022-12-24T06:02:45;32.13;;;4.15;;
68250;SDS011;55066;51.560;4.642;2022-12-24T06:05:10;27.20;;;3.40;;
68250;SDS011;55066;51.560;4.642;2022-12-24T06:07:35;32.97;;;3.67;;
68250;SDS011;55066;51.560;4.642;2022-12-24T06:10:01;33.20;;;3.95;;
68250;SDS011;55066;51.560;4.642;2022-12-24T06:12:27;26.43;;;3.80;;
68250;SDS011;55066;51.560;4.642;2022-12-24T06:14:53;34.70;;;3.88;;
68250;SDS011;55066;51.560;4.642;2022-12-24T06:17:18;25.87;;;3.60;;
68250;SDS011;55066;51.560;4.642;2022-12-24T06:19:43;34.87;;;4.17;;
68250;SDS011;55066;51.560;4.642;2022-12-24T06:22:09;29.53;;;3.30;;
68250;SDS011;55066;51.560;4.642;2022-12-24T06:24:34;30.57;;;3.80;;
68250;SDS011;55066;51.560;4.642;2022-12-24T06:26:59;27.27;;;3.83;;
68250;SDS011;55066;51.560;4.642;2022-12-24T06:29:25;33.08;;;4.13;;
68250;SDS011;55066;51.560;4.642;2022-12-24T06:31:50;42.20;;;3.72;;
68250;SDS011;55066;51.560;4.642;2022-12-24T06:34:16;31.00;;;4.07;;
68250;SDS011;55066;51.560;4.642;2022-12-24T06:36:41;34.07;;;4.87;;
68250;SDS011;55066;51.560;4.642;2022-12-24T06:39:06;39.07;;;4.37;;
68250;SDS011;55066;51.560;4.642;2022-12-24T06:41:32;42.83;;;4.47;;
68250;SDS011;55066;51.560;4.642;2022-12-24T06:43:57;27.85;;;3.70;;
68250;SDS011;55066;51.560;4.642;2022-12-24T06:46:23;31.70;;;3.93;;
68250;SDS011;55066;51.560;4.642;2022-12-24T06:48:48;34.67;;;4.50;;
68250;SDS011;55066;51.560;4.642;2022-12-24T06:51:15;31.95;;;4.28;;
68250;SDS011;55066;51.560;4.642;2022-12-24T06:53:43;28.17;;;3.40;;
68250;SDS011;55066;51.560;4.642;2022-12-24T06:56:10;38.60;;;4.28;;
68250;SDS011;55066;51.560;4.642;2022-12-24T06:58:37;33.37;;;3.90;;
68250;SDS011;55066;51.560;4.642;2022-12-24T07:01:06;28.25;;;4.28;;
68250;SDS011;55066;51.560;4.642;2022-12-24T07:03:33;38.83;;;4.13;;
68250;SDS011;55066;51.560;4.642;2022-12-24T07:05:58;41.05;;;4.10;;
68250;SDS011;55066;51.560;4.642;2022-12-24T07:08:24;35.30;;;4.63;;
68250;SDS011;55066;51.560;4.642;2022-12-24T07:10:50;29.97;;;3.80;;
68250;SDS011;55066;51.560;4.642;2022-12-24T07:13:16;35.72;;;4.10;;
68250;SDS011;55066;51.560;4.642;2022-12-24T07:15:41;31.27;;;4.13;;
68250;SDS011;55066;51.560;4.642;2022-12-24T07:18:07;32.20;;;4.17;;
68250;SDS011;55066;51.560;4.642;2022-12-24T07:20:33;44.73;;;4.33;;
68250;SDS011;55066;51.560;4.642;2022-12-24T07:22:58;38.72;;;4.78;;
68250;SDS011;55066;51.560;4.642;2022-12-24T07:25:25;29.70;;;4.80;;
68250;SDS011;55066;51.560;4.642;2022-12-24T07:27:50;24.63;;;3.47;;
68250;SDS011;55066;51.560;4.642;2022-12-24T07:30:16;21.00;;;3.50;;
68250;SDS011;55066;51.560;4.642;2022-12-24T07:32:42;30.23;;;4.20;;
68250;SDS011;55066;51.560;4.642;2022-12-24T07:35:07;33.25;;;4.22;;
68250;SDS011;55066;51.560;4.642;2022-12-24T07:37:34;33.33;;;3.78;;
68250;SDS011;55066;51.560;4.642;2022-12-24T07:39:59;31.83;;;3.40;;
68250;SDS011;55066;51.560;4.642;2022-12-24T07:42:25;40.08;;;4.03;;
68250;SDS011;55066;51.560;4.642;2022-12-24T07:44:50;29.77;;;4.17;;
68250;SDS011;55066;51.560;4.642;2022-12-24T07:47:16;20.38;;;3.47;;
68250;SDS011;55066;51.560;4.642;2022-12-24T07:49:41;38.65;;;4.00;;
68250;SDS011;55066;51.560;4.642;2022-12-24T07:52:07;39.47;;;4.57;;
68250;SDS011;55066;51.560;4.642;2022-12-24T07:54:32;29.53;;;4.27;;
68250;SDS011;55066;51.560;4.642;2022-12-24T07:56:58;36.53;;;4.63;;
68250;SDS011;55066;51.560;4.642;2022-12-24T07:59:25;32.78;;;4.40;;
68250;SDS011;55066;51.560;4.642;2022-12-24T08:01:53;27.23;;;4.53;;
68250;SDS011;55066;51.560;4.642;2022-12-24T08:04:18;30.77;;;4.30;;
68250;SDS011;55066;51.560;4.642;2022-12-24T08:06:43;33.83;;;4.33;;
68250;SDS011;55066;51.560;4.642;2022-12-24T08:09:09;41.08;;;4.75;;
68250;SDS011;55066;51.560;4.642;2022-12-24T08:11:34;29.33;;;4.63;;
68250;SDS011;55066;51.560;4.642;2022-12-24T08:14:00;36.33;;;4.30;;
68250;SDS011;55066;51.560;4.642;2022-12-24T08:16:26;34.58;;;4.80;;
68250;SDS011;55066;51.560;4.642;2022-12-24T08:18:52;32.97;;;5.30;;
68250;SDS011;55066;51.560;4.642;2022-12-24T08:21:18;44.25;;;5.68;;
68250;SDS011;55066;51.560;4.642;2022-12-24T08:23:45;30.17;;;4.27;;
68250;SDS011;55066;51.560;4.642;2022-12-24T08:26:10;26.05;;;4.60;;
68250;SDS011;55066;51.560;4.642;2022-12-24T08:28:37;33.50;;;5.18;;
68250;SDS011;55066;51.560;4.642;2022-12-24T08:31:03;39.43;;;5.03;;
68250;SDS011;55066;51.560;4.642;2022-12-24T08:33:29;33.67;;;4.80;;
68250;SDS011;55066;51.560;4.642;2022-12-24T08:35:54;38.20;;;4.57;;
68250;SDS011;55066;51.560;4.642;2022-12-24T08:38:21;33.70;;;4.82;;
68250;SDS011;55066;51.560;4.642;2022-12-24T08:40:47;22.50;;;3.88;;
68250;SDS011;55066;51.560;4.642;2022-12-24T08:43:14;38.05;;;5.22;;
68250;SDS011;55066;51.560;4.642;2022-12-24T08:45:41;30.30;;;4.20;;
68250;SDS011;55066;51.560;4.642;2022-12-24T08:48:07;34.63;;;5.40;;
68250;SDS011;55066;51.560;4.642;2022-12-24T08:50:33;31.58;;;4.15;;
68250;SDS011;55066;51.560;4.642;2022-12-24T08:52:59;33.20;;;5.35;;
68250;SDS011;55066;51.560;4.642;2022-12-24T08:55:25;30.00;;;5.67;;
68250;SDS011;55066;51.560;4.642;2022-12-24T08:57:50;36.63;;;6.33;;
68250;SDS011;55066;51.560;4.642;2022-12-24T09:00:16;24.90;;;3.63;;
68250;SDS011;55066;51.560;4.642;2022-12-24T09:02:41;38.05;;;6.10;;
68250;SDS011;55066;51.560;4.642;2022-12-24T09:05:07;27.00;;;4.73;;
68250;SDS011;55066;51.560;4.642;2022-12-24T09:07:32;32.60;;;4.60;;
68250;SDS011;55066;51.560;4.642;2022-12-24T09:09:59;26.02;;;4.78;;
68250;SDS011;55066;51.560;4.642;2022-12-24T09:12:25;34.77;;;4.53;;
68250;SDS011;55066;51.560;4.642;2022-12-24T09:14:50;27.42;;;4.38;;
68250;SDS011;55066;51.560;4.642;2022-12-24T09:17:16;31.60;;;4.40;;
68250;SDS011;55066;51.560;4.642;2022-12-24T09:19:42;33.67;;;4.00;;
68250;SDS011;55066;51.560;4.642;2022-12-24T09:22:07;29.87;;;4.47;;
68250;SDS011;55066;51.560;4.642;2022-12-24T09:24:32;35.63;;;5.23;;
68250;SDS011;55066;51.560;4.642;2022-12-24T09:27:00;37.45;;;4.20;;
68250;SDS011;55066;51.560;4.642;2022-12-24T09:29:26;34.20;;;5.50;;
68250;SDS011;55066;51.560;4.642;2022-12-24T09:31:52;26.38;;;4.05;;
68250;SDS011;55066;51.560;4.642;2022-12-24T09:34:19;33.20;;;4.72;;
68250;SDS011;55066;51.560;4.642;2022-12-24T09:36:45;36.33;;;5.00;;
68250;SDS011;55066;51.560;4.642;2022-12-24T09:39:10;30.27;;;3.93;;
68250;SDS011;55066;51.560;4.642;2022-12-24T09:49:58;29.23;;;3.95;;
68250;SDS011;55066;51.560;4.642;2022-12-24T09:52:32;30.65;;;4.80;;
68250;SDS011;55066;51.560;4.642;2022-12-24T09:55:45;30.50;;;4.43;;
68250;SDS011;55066;51.560;4.642;2022-12-24T09:57:59;25.88;;;4.35;;
68250;SDS011;55066;51.560;4.642;2022-12-24T10:00:29;31.73;;;4.78;;
68250;SDS011;55066;51.560;4.642;2022-12-24T10:02:57;29.05;;;4.95;;
68250;SDS011;55066;51.560;4.642;2022-12-24T10:05:37;29.35;;;3.35;;
68250;SDS011;55066;51.560;4.642;2022-12-24T10:08:33;24.85;;;3.25;;
68250;SDS011;55066;51.560;4.642;2022-12-24T10:19:15;31.02;;;4.00;;
68250;SDS011;55066;51.560;4.642;2022-12-24T10:24:33;35.38;;;4.35;;
68250;SDS011;55066;51.560;4.642;2022-12-24T10:27:11;21.77;;;3.80;;
68250;SDS011;55066;51.560;4.642;2022-12-24T10:29:48;23.05;;;4.22;;
68250;SDS011;55066;51.560;4.642;2022-12-24T10:32:20;34.08;;;4.50;;
68250;SDS011;55066;51.560;4.642;2022-12-24T10:34:58;31.05;;;3.97;;
68250;SDS011;55066;51.560;4.642;2022-12-24T10:37:28;36.05;;;4.32;;
68250;SDS011;55066;51.560;4.642;2022-12-24T10:39:54;31.73;;;4.57;;
68250;SDS011;55066;51.560;4.642;2022-12-24T10:42:26;30.73;;;4.55;;
68250;SDS011;55066;51.560;4.642;2022-12-24T10:45:09;28.48;;;3.97;;
68250;SDS011;55066;51.560;4.642;2022-12-24T10:47:40;34.85;;;3.90;;
68250;SDS011;55066;51.560;4.642;2022-12-24T10:50:12;30.65;;;3.97;;
68250;SDS011;55066;51.560;4.642;2022-12-24T10:52:43;17.90;;;3.90;;
68250;SDS011;55066;51.560;4.642;2022-12-24T10:57:41;27.90;;;3.90;;
68250;SDS011;55066;51.560;4.642;2022-12-24T11:00:27;29.60;;;4.30;;
68250;SDS011;55066;51.560;4.642;2022-12-24T11:03:07;30.50;;;3.97;;
68250;SDS011;55066;51.560;4.642;2022-12-24T11:05:42;27.07;;;3.17;;
68250;SDS011;55066;51.560;4.642;2022-12-24T11:10:38;34.67;;;3.97;;
68250;SDS011;55066;51.560;4.642;2022-12-24T11:13:14;28.90;;;3.80;;
68250;SDS011;55066;51.560;4.642;2022-12-24T11:15:47;21.60;;;3.63;;
68250;SDS011;55066;51.560;4.642;2022-12-24T11:18:22;25.23;;;3.53;;
68250;SDS011;55066;51.560;4.642;2022-12-24T11:20:48;31.33;;;3.80;;
68250;SDS011;55066;51.560;4.642;2022-12-24T11:23:16;30.67;;;4.07;;
68250;SDS011;55066;51.560;4.642;2022-12-24T11:25:45;28.08;;;4.05;;
68250;SDS011;55066;51.560;4.642;2022-12-24T11:28:18;20.88;;;3.58;;
68250;SDS011;55066;51.560;4.642;2022-12-24T11:31:05;24.85;;;3.40;;
68250;SDS011;55066;51.560;4.642;2022-12-24T11:33:46;33.08;;;3.65;;
68250;SDS011;55066;51.560;4.642;2022-12-24T11:36:13;29.75;;;3.50;;
68250;SDS011;55066;51.560;4.642;2022-12-24T11:38:44;31.20;;;3.65;;
68250;SDS011;55066;51.560;4.642;2022-12-24T11:41:20;23.17;;;3.72;;
68250;SDS011;55066;51.560;4.642;2022-12-24T11:43:47;34.07;;;3.47;;
68250;SDS011;55066;51.560;4.642;2022-12-24T11:46:19;26.85;;;3.15;;
68250;SDS011;55066;51.560;4.642;2022-12-24T11:51:44;36.97;;;4.57;;
68250;SDS011;55066;51.560;4.642;2022-12-24T11:54:35;28.73;;;3.50;;
68250;SDS011;55066;51.560;4.642;2022-12-24T11:57:24;26.02;;;3.80;;
68250;SDS011;55066;51.560;4.642;2022-12-24T11:59:56;18.08;;;2.90;;
68250;SDS011;55066;51.560;4.642;2022-12-24T12:02:22;23.05;;;2.88;;
68250;SDS011;55066;51.560;4.642;2022-12-24T12:04:57;27.00;;;3.40;;
68250;SDS011;55066;51.560;4.642;2022-12-24T12:07:28;28.63;;;4.35;;
68250;SDS011;55066;51.560;4.642;2022-12-24T12:12:42;26.23;;;4.50;;
68250;SDS011;55066;51.560;4.642;2022-12-24T12:15:11;35.50;;;5.75;;
68250;SDS011;55066;51.560;4.642;2022-12-24T12:17:51;25.60;;;4.30;;
68250;SDS011;55066;51.560;4.642;2022-12-24T12:23:24;22.77;;;4.68;;
68250;SDS011;55066;51.560;4.642;2022-12-24T12:31:33;24.03;;;3.43;;
68250;SDS011;55066;51.560;4.642;2022-12-24T12:36:48;24.88;;;3.17;;
68250;SDS011;55066;51.560;4.642;2022-12-24T12:39:17;25.05;;;3.42;;
68250;SDS011;55066;51.560;4.642;2022-12-24T12:44:24;27.25;;;3.88;;
68250;SDS011;55066;51.560;4.642;2022-12-24T12:47:02;23.67;;;3.42;;
68250;SDS011;55066;51.560;4.642;2022-12-24T12:57:22;30.23;;;4.18;;
68250;SDS011;55066;51.560;4.642;2022-12-24T12:59:51;34.28;;;4.82;;
68250;SDS011;55066;51.560;4.642;2022-12-24T13:08:42;35.88;;;5.20;;
68250;SDS011;55066;51.560;4.642;2022-12-24T13:14:17;26.67;;;4.30;;
68250;SDS011;55066;51.560;4.642;2022-12-24T13:22:22;25.80;;;4.65;;
68250;SDS011;55066;51.560;4.642;2022-12-24T13:24:49;26.70;;;4.63;;
68250;SDS011;55066;51.560;4.642;2022-12-24T13:27:29;28.73;;;4.65;;
68250;SDS011;55066;51.560;4.642;2022-12-24T13:33:01;26.70;;;4.15;;
68250;SDS011;55066;51.560;4.642;2022-12-24T13:35:31;25.83;;;5.63;;
68250;SDS011;55066;51.560;4.642;2022-12-24T13:40:51;26.58;;;4.10;;
68250;SDS011;55066;51.560;4.642;2022-12-24T13:43:17;34.03;;;4.53;;
68250;SDS011;55066;51.560;4.642;2022-12-24T13:45:44;24.97;;;4.50;;
68250;SDS011;55066;51.560;4.642;2022-12-24T13:53:36;23.83;;;4.60;;
68250;SDS011;55066;51.560;4.642;2022-12-24T13:56:07;36.80;;;5.32;;
68250;SDS011;55066;51.560;4.642;2022-12-24T13:58:45;27.05;;;4.97;;
68250;SDS011;55066;51.560;4.642;2022-12-24T14:01:17;30.80;;;4.68;;
68250;SDS011;55066;51.560;4.642;2022-12-24T14:03:54;32.50;;;4.73;;
68250;SDS011;55066;51.560;4.642;2022-12-24T14:06:33;22.08;;;4.72;;
68250;SDS011;55066;51.560;4.642;2022-12-24T14:14:29;26.77;;;5.07;;
68250;SDS011;55066;51.560;4.642;2022-12-24T14:19:47;32.47;;;5.32;;
68250;SDS011;55066;51.560;4.642;2022-12-24T14:22:18;25.65;;;6.35;;
68250;SDS011;55066;51.560;4.642;2022-12-24T14:24:55;28.42;;;5.10;;
68250;SDS011;55066;51.560;4.642;2022-12-24T14:27:46;37.22;;;6.55;;
68250;SDS011;55066;51.560;4.642;2022-12-24T14:32:49;29.80;;;6.65;;
68250;SDS011;55066;51.560;4.642;2022-12-24T14:35:23;33.90;;;7.07;;
68250;SDS011;55066;51.560;4.642;2022-12-24T14:38:03;32.13;;;6.57;;
68250;SDS011;55066;51.560;4.642;2022-12-24T14:43:56;34.03;;;6.30;;
68250;SDS011;55066;51.560;4.642;2022-12-24T14:46:53;31.80;;;6.60;;
68250;SDS011;55066;51.560;4.642;2022-12-24T14:54:39;33.55;;;5.85;;
68250;SDS011;55066;51.560;4.642;2022-12-24T14:59:47;29.00;;;6.00;;
68250;SDS011;55066;51.560;4.642;2022-12-24T15:05:04;37.28;;;6.10;;
68250;SDS011;55066;51.560;4.642;2022-12-24T15:07:33;30.58;;;6.85;;
68250;SDS011;55066;51.560;4.642;2022-12-24T15:10:02;28.10;;;6.33;;
68250;SDS011;55066;51.560;4.642;2022-12-24T15:12:29;29.33;;;5.93;;
68250;SDS011;55066;51.560;4.642;2022-12-24T15:14:56;34.45;;;6.55;;
68250;SDS011;55066;51.560;4.642;2022-12-24T15:17:21;38.40;;;6.60;;
68250;SDS011;55066;51.560;4.642;2022-12-24T15:19:48;29.70;;;6.82;;
68250;SDS011;55066;51.560;4.642;2022-12-24T15:22:24;33.37;;;5.93;;
68250;SDS011;55066;51.560;4.642;2022-12-24T15:24:52;31.25;;;6.55;;
68250;SDS011;55066;51.560;4.642;2022-12-24T15:27:19;29.85;;;6.63;;
68250;SDS011;55066;51.560;4.642;2022-12-24T15:29:47;34.45;;;6.13;;
68250;SDS011;55066;51.560;4.642;2022-12-24T15:32:16;31.73;;;6.65;;
68250;SDS011;55066;51.560;4.642;2022-12-24T15:34:44;41.20;;;7.10;;
68250;SDS011;55066;51.560;4.642;2022-12-24T15:39:44;26.02;;;6.05;;
68250;SDS011;55066;51.560;4.642;2022-12-24T15:42:42;31.33;;;6.70;;
68250;SDS011;55066;51.560;4.642;2022-12-24T15:47:54;29.52;;;6.75;;
68250;SDS011;55066;51.560;4.642;2022-12-24T15:50:42;39.10;;;7.50;;
68250;SDS011;55066;51.560;4.642;2022-12-24T15:53:28;32.77;;;6.20;;
68250;SDS011;55066;51.560;4.642;2022-12-24T15:56:13;34.97;;;6.60;;
68250;SDS011;55066;51.560;4.642;2022-12-24T15:59:40;34.22;;;6.38;;
68250;SDS011;55066;51.560;4.642;2022-12-24T16:01:43;32.75;;;6.22;;
68250;SDS011;55066;51.560;4.642;2022-12-24T16:04:14;28.20;;;6.53;;
68250;SDS011;55066;51.560;4.642;2022-12-24T16:12:03;24.70;;;5.97;;
68250;SDS011;55066;51.560;4.642;2022-12-24T16:14:37;27.17;;;7.28;;
68250;SDS011;55066;51.560;4.642;2022-12-24T16:17:17;35.38;;;6.43;;
68250;SDS011;55066;51.560;4.642;2022-12-24T16:19:51;33.17;;;6.27;;
68250;SDS011;55066;51.560;4.642;2022-12-24T16:22:19;40.03;;;7.15;;
68250;SDS011;55066;51.560;4.642;2022-12-24T16:27:45;37.70;;;5.68;;
68250;SDS011;55066;51.560;4.642;2022-12-24T16:30:10;33.17;;;6.00;;
68250;SDS011;55066;51.560;4.642;2022-12-24T16:32:37;34.00;;;6.00;;
68250;SDS011;55066;51.560;4.642;2022-12-24T16:35:05;22.80;;;5.68;;
68250;SDS011;55066;51.560;4.642;2022-12-24T16:37:36;33.03;;;5.82;;
68250;SDS011;55066;51.560;4.642;2022-12-24T16:40:12;34.42;;;6.28;;
68250;SDS011;55066;51.560;4.642;2022-12-24T16:42:38;34.10;;;6.20;;
68250;SDS011;55066;51.560;4.642;2022-12-24T16:45:22;37.53;;;6.22;;
68250;SDS011;55066;51.560;4.642;2022-12-24T16:47:48;39.53;;;6.40;;
68250;SDS011;55066;51.560;4.642;2022-12-24T16:50:15;31.52;;;5.70;;
68250;SDS011;55066;51.560;4.642;2022-12-24T16:52:40;24.33;;;5.63;;
68250;SDS011;55066;51.560;4.642;2022-12-24T16:55:06;39.13;;;5.93;;
68250;SDS011;55066;51.560;4.642;2022-12-24T16:57:32;37.30;;;6.85;;
68250;SDS011;55066;51.560;4.642;2022-12-24T16:59:57;30.17;;;6.72;;
68250;SDS011;55066;51.560;4.642;2022-12-24T17:02:23;34.60;;;6.57;;
68250;SDS011;55066;51.560;4.642;2022-12-24T17:04:49;36.87;;;8.67;;